Mowry, Pennsylvania
Current Conditions -  °F | °C
As of 12:35 AM on Friday 28 Nov 2014 (Local Time) from KHZL Reporting Station
Light Snow Light Snow  
Wind Chill: 28°   Ceiling: 1200
Heat Index: 28°   Visibility: 7mi
Dew Point: 27°   Wind: 3mph
Humidity: 93%   Direction: 260°W
Pressure: 30.05"   Gusts: NA
Location:  40.7564°N, 76.3531°W
Report Text: KHZL 280535Z AUTO 26003KT 7SM -SN OVC012 M02/M03 A3005 RMK AO2
Loading
Personal Weather Stations






























Interactive Weather Map New forecast layout! Learn more

10-Day Weather Forecast

Advertisements
Track Severe Weather on mobile